sensor_id;sensor_type;location;lat;lon;timestamp;P1;durP1;ratioP1;P2;durP2;ratioP2
64601;SDS011;68371;42.630;23.192;2023-09-12T00:02:24;4.05;;;2.30;;
64601;SDS011;68371;42.630;23.192;2023-09-12T00:04:50;4.57;;;2.30;;
64601;SDS011;68371;42.630;23.192;2023-09-12T00:07:17;5.72;;;2.50;;
64601;SDS011;68371;42.630;23.192;2023-09-12T00:09:45;5.72;;;2.65;;
64601;SDS011;68371;42.630;23.192;2023-09-12T00:12:13;3.78;;;2.42;;
64601;SDS011;68371;42.630;23.192;2023-09-12T00:14:41;6.05;;;2.15;;
64601;SDS011;68371;42.630;23.192;2023-09-12T00:17:08;4.70;;;2.40;;
64601;SDS011;68371;42.630;23.192;2023-09-12T00:19:35;4.47;;;2.10;;
64601;SDS011;68371;42.630;23.192;2023-09-12T00:22:02;4.95;;;2.22;;
64601;SDS011;68371;42.630;23.192;2023-09-12T00:24:30;4.22;;;2.28;;
64601;SDS011;68371;42.630;23.192;2023-09-12T00:26:58;3.50;;;2.15;;
64601;SDS011;68371;42.630;23.192;2023-09-12T00:29:26;8.18;;;2.17;;
64601;SDS011;68371;42.630;23.192;2023-09-12T00:31:53;4.60;;;2.25;;
64601;SDS011;68371;42.630;23.192;2023-09-12T00:34:20;4.43;;;2.20;;
64601;SDS011;68371;42.630;23.192;2023-09-12T00:36:46;5.15;;;1.98;;
64601;SDS011;68371;42.630;23.192;2023-09-12T00:39:13;3.78;;;2.28;;
64601;SDS011;68371;42.630;23.192;2023-09-12T00:41:40;5.90;;;2.30;;
64601;SDS011;68371;42.630;23.192;2023-09-12T00:44:08;4.88;;;2.70;;
64601;SDS011;68371;42.630;23.192;2023-09-12T00:46:36;5.22;;;2.03;;
64601;SDS011;68371;42.630;23.192;2023-09-12T00:49:04;4.28;;;2.22;;
64601;SDS011;68371;42.630;23.192;2023-09-12T00:51:33;8.95;;;2.22;;
64601;SDS011;68371;42.630;23.192;2023-09-12T00:54:01;4.70;;;2.13;;
64601;SDS011;68371;42.630;23.192;2023-09-12T00:56:28;8.00;;;2.17;;
64601;SDS011;68371;42.630;23.192;2023-09-12T00:58:55;12.20;;;2.47;;
64601;SDS011;68371;42.630;23.192;2023-09-12T01:01:24;3.63;;;2.10;;
64601;SDS011;68371;42.630;23.192;2023-09-12T01:03:51;10.68;;;2.28;;
64601;SDS011;68371;42.630;23.192;2023-09-12T01:06:18;4.95;;;2.15;;
64601;SDS011;68371;42.630;23.192;2023-09-12T01:08:46;4.28;;;2.25;;
64601;SDS011;68371;42.630;23.192;2023-09-12T01:11:13;5.28;;;2.90;;
64601;SDS011;68371;42.630;23.192;2023-09-12T01:13:40;4.85;;;2.15;;
64601;SDS011;68371;42.630;23.192;2023-09-12T01:16:07;4.88;;;2.10;;
64601;SDS011;68371;42.630;23.192;2023-09-12T01:18:35;6.97;;;2.30;;
64601;SDS011;68371;42.630;23.192;2023-09-12T01:24:06;7.45;;;2.50;;
64601;SDS011;68371;42.630;23.192;2023-09-12T01:26:52;4.68;;;2.15;;
64601;SDS011;68371;42.630;23.192;2023-09-12T01:29:29;6.35;;;2.53;;
64601;SDS011;68371;42.630;23.192;2023-09-12T01:31:57;3.63;;;2.20;;
64601;SDS011;68371;42.630;23.192;2023-09-12T01:34:26;4.50;;;2.22;;
64601;SDS011;68371;42.630;23.192;2023-09-12T01:36:53;5.15;;;2.35;;
64601;SDS011;68371;42.630;23.192;2023-09-12T01:39:19;4.85;;;2.30;;
64601;SDS011;68371;42.630;23.192;2023-09-12T01:41:46;6.82;;;2.17;;
64601;SDS011;68371;42.630;23.192;2023-09-12T01:44:15;4.93;;;2.45;;
64601;SDS011;68371;42.630;23.192;2023-09-12T01:46:45;8.82;;;3.05;;
64601;SDS011;68371;42.630;23.192;2023-09-12T01:51:42;4.22;;;2.10;;
64601;SDS011;68371;42.630;23.192;2023-09-12T01:54:09;3.85;;;2.20;;
64601;SDS011;68371;42.630;23.192;2023-09-12T01:56:36;9.60;;;2.33;;
64601;SDS011;68371;42.630;23.192;2023-09-12T01:59:05;4.53;;;2.10;;
64601;SDS011;68371;42.630;23.192;2023-09-12T02:01:32;8.85;;;2.30;;
64601;SDS011;68371;42.630;23.192;2023-09-12T02:04:00;4.93;;;2.40;;
64601;SDS011;68371;42.630;23.192;2023-09-12T02:06:27;4.22;;;2.22;;
64601;SDS011;68371;42.630;23.192;2023-09-12T02:08:53;5.75;;;2.72;;
64601;SDS011;68371;42.630;23.192;2023-09-12T02:11:20;4.30;;;2.15;;
64601;SDS011;68371;42.630;23.192;2023-09-12T02:13:46;20.33;;;2.70;;
64601;SDS011;68371;42.630;23.192;2023-09-12T02:16:12;4.25;;;2.17;;
64601;SDS011;68371;42.630;23.192;2023-09-12T02:18:39;4.20;;;2.17;;
64601;SDS011;68371;42.630;23.192;2023-09-12T02:21:08;4.00;;;2.08;;
64601;SDS011;68371;42.630;23.192;2023-09-12T02:23:35;3.95;;;2.33;;
64601;SDS011;68371;42.630;23.192;2023-09-12T02:26:02;5.03;;;2.40;;
64601;SDS011;68371;42.630;23.192;2023-09-12T02:28:29;5.53;;;2.38;;
64601;SDS011;68371;42.630;23.192;2023-09-12T02:30:55;8.02;;;3.10;;
64601;SDS011;68371;42.630;23.192;2023-09-12T02:33:22;5.40;;;2.38;;
64601;SDS011;68371;42.630;23.192;2023-09-12T02:35:48;8.40;;;2.33;;
64601;SDS011;68371;42.630;23.192;2023-09-12T02:38:17;4.03;;;2.40;;
64601;SDS011;68371;42.630;23.192;2023-09-12T02:40:44;4.55;;;2.13;;
64601;SDS011;68371;42.630;23.192;2023-09-12T02:43:10;5.78;;;2.35;;
64601;SDS011;68371;42.630;23.192;2023-09-12T02:45:37;4.65;;;2.90;;
64601;SDS011;68371;42.630;23.192;2023-09-12T02:48:04;5.72;;;2.25;;
64601;SDS011;68371;42.630;23.192;2023-09-12T02:50:31;10.18;;;2.50;;
64601;SDS011;68371;42.630;23.192;2023-09-12T02:52:58;4.22;;;2.33;;
64601;SDS011;68371;42.630;23.192;2023-09-12T02:55:26;4.40;;;2.20;;
64601;SDS011;68371;42.630;23.192;2023-09-12T02:57:53;5.50;;;2.30;;
64601;SDS011;68371;42.630;23.192;2023-09-12T03:00:19;4.70;;;2.40;;
64601;SDS011;68371;42.630;23.192;2023-09-12T03:02:46;5.20;;;2.38;;
64601;SDS011;68371;42.630;23.192;2023-09-12T03:05:13;4.32;;;2.47;;
64601;SDS011;68371;42.630;23.192;2023-09-12T03:07:40;5.57;;;2.70;;
64601;SDS011;68371;42.630;23.192;2023-09-12T03:10:07;8.20;;;2.47;;
64601;SDS011;68371;42.630;23.192;2023-09-12T03:12:36;4.45;;;2.38;;
64601;SDS011;68371;42.630;23.192;2023-09-12T03:15:03;4.10;;;2.42;;
64601;SDS011;68371;42.630;23.192;2023-09-12T03:17:31;6.85;;;2.50;;
64601;SDS011;68371;42.630;23.192;2023-09-12T03:19:58;5.60;;;2.13;;
64601;SDS011;68371;42.630;23.192;2023-09-12T03:22:25;3.97;;;2.58;;
64601;SDS011;68371;42.630;23.192;2023-09-12T03:24:52;6.25;;;2.47;;
64601;SDS011;68371;42.630;23.192;2023-09-12T03:27:18;3.97;;;2.30;;
64601;SDS011;68371;42.630;23.192;2023-09-12T03:29:47;6.32;;;2.85;;
64601;SDS011;68371;42.630;23.192;2023-09-12T03:32:14;8.90;;;2.40;;
64601;SDS011;68371;42.630;23.192;2023-09-12T03:34:41;4.85;;;2.53;;
64601;SDS011;68371;42.630;23.192;2023-09-12T03:37:07;5.78;;;2.78;;
64601;SDS011;68371;42.630;23.192;2023-09-12T03:39:34;5.18;;;2.28;;
64601;SDS011;68371;42.630;23.192;2023-09-12T03:42:01;4.30;;;2.45;;
64601;SDS011;68371;42.630;23.192;2023-09-12T03:44:28;6.15;;;2.70;;
64601;SDS011;68371;42.630;23.192;2023-09-12T03:46:56;6.88;;;2.47;;
64601;SDS011;68371;42.630;23.192;2023-09-12T03:49:23;7.22;;;2.85;;
64601;SDS011;68371;42.630;23.192;2023-09-12T03:51:50;5.57;;;2.45;;
64601;SDS011;68371;42.630;23.192;2023-09-12T03:54:16;4.80;;;2.45;;
64601;SDS011;68371;42.630;23.192;2023-09-12T03:56:43;5.35;;;2.42;;
64601;SDS011;68371;42.630;23.192;2023-09-12T03:59:10;4.95;;;2.40;;
64601;SDS011;68371;42.630;23.192;2023-09-12T04:01:37;4.10;;;2.53;;
64601;SDS011;68371;42.630;23.192;2023-09-12T04:04:05;5.28;;;2.72;;
64601;SDS011;68371;42.630;23.192;2023-09-12T04:06:32;6.18;;;2.50;;
64601;SDS011;68371;42.630;23.192;2023-09-12T04:08:59;7.03;;;2.80;;
64601;SDS011;68371;42.630;23.192;2023-09-12T04:11:26;6.03;;;2.42;;
64601;SDS011;68371;42.630;23.192;2023-09-12T04:13:52;6.50;;;2.47;;
64601;SDS011;68371;42.630;23.192;2023-09-12T04:16:19;5.05;;;2.72;;
64601;SDS011;68371;42.630;23.192;2023-09-12T04:18:45;6.93;;;2.80;;
64601;SDS011;68371;42.630;23.192;2023-09-12T04:21:13;8.07;;;2.58;;
64601;SDS011;68371;42.630;23.192;2023-09-12T04:23:40;6.85;;;2.72;;
64601;SDS011;68371;42.630;23.192;2023-09-12T04:26:07;8.50;;;2.55;;
64601;SDS011;68371;42.630;23.192;2023-09-12T04:28:33;10.32;;;2.53;;
64601;SDS011;68371;42.630;23.192;2023-09-12T04:31:01;13.07;;;2.90;;
64601;SDS011;68371;42.630;23.192;2023-09-12T04:33:28;6.32;;;2.78;;
64601;SDS011;68371;42.630;23.192;2023-09-12T04:35:56;8.70;;;2.83;;
64601;SDS011;68371;42.630;23.192;2023-09-12T04:38:25;5.30;;;2.72;;
64601;SDS011;68371;42.630;23.192;2023-09-12T04:40:55;8.45;;;2.88;;
64601;SDS011;68371;42.630;23.192;2023-09-12T04:43:22;6.70;;;2.83;;
64601;SDS011;68371;42.630;23.192;2023-09-12T04:45:49;11.77;;;3.35;;
64601;SDS011;68371;42.630;23.192;2023-09-12T04:48:16;5.97;;;3.10;;
64601;SDS011;68371;42.630;23.192;2023-09-12T04:50:43;16.75;;;2.60;;
64601;SDS011;68371;42.630;23.192;2023-09-12T04:53:11;13.82;;;2.65;;
64601;SDS011;68371;42.630;23.192;2023-09-12T04:55:39;14.50;;;2.78;;
64601;SDS011;68371;42.630;23.192;2023-09-12T04:58:06;10.38;;;2.90;;
64601;SDS011;68371;42.630;23.192;2023-09-12T05:00:33;9.05;;;3.80;;
64601;SDS011;68371;42.630;23.192;2023-09-12T05:03:01;7.60;;;2.95;;
64601;SDS011;68371;42.630;23.192;2023-09-12T05:05:28;11.43;;;2.85;;
64601;SDS011;68371;42.630;23.192;2023-09-12T05:07:55;8.07;;;3.33;;
64601;SDS011;68371;42.630;23.192;2023-09-12T05:10:22;7.82;;;3.38;;
64601;SDS011;68371;42.630;23.192;2023-09-12T05:12:50;8.73;;;3.50;;
64601;SDS011;68371;42.630;23.192;2023-09-12T05:15:17;8.63;;;3.30;;
64601;SDS011;68371;42.630;23.192;2023-09-12T05:17:43;11.88;;;3.63;;
64601;SDS011;68371;42.630;23.192;2023-09-12T05:20:10;9.10;;;4.03;;
64601;SDS011;68371;42.630;23.192;2023-09-12T05:22:37;7.80;;;4.38;;
64601;SDS011;68371;42.630;23.192;2023-09-12T05:25:04;8.63;;;4.10;;
64601;SDS011;68371;42.630;23.192;2023-09-12T05:27:31;22.42;;;4.07;;
64601;SDS011;68371;42.630;23.192;2023-09-12T05:29:59;13.15;;;3.75;;
64601;SDS011;68371;42.630;23.192;2023-09-12T05:32:26;10.60;;;4.40;;
64601;SDS011;68371;42.630;23.192;2023-09-12T05:34:53;14.82;;;4.00;;
64601;SDS011;68371;42.630;23.192;2023-09-12T05:37:19;6.65;;;3.67;;
64601;SDS011;68371;42.630;23.192;2023-09-12T05:39:46;9.00;;;3.65;;
64601;SDS011;68371;42.630;23.192;2023-09-12T05:42:13;14.90;;;3.85;;
64601;SDS011;68371;42.630;23.192;2023-09-12T05:44:46;14.07;;;4.15;;
64601;SDS011;68371;42.630;23.192;2023-09-12T05:47:15;17.88;;;4.30;;
64601;SDS011;68371;42.630;23.192;2023-09-12T05:49:42;12.85;;;3.70;;
64601;SDS011;68371;42.630;23.192;2023-09-12T05:52:09;8.60;;;3.33;;
64601;SDS011;68371;42.630;23.192;2023-09-12T05:54:36;14.38;;;3.42;;
64601;SDS011;68371;42.630;23.192;2023-09-12T05:57:03;9.35;;;3.40;;
64601;SDS011;68371;42.630;23.192;2023-09-12T05:59:30;6.60;;;2.75;;
64601;SDS011;68371;42.630;23.192;2023-09-12T06:01:57;10.30;;;3.20;;
64601;SDS011;68371;42.630;23.192;2023-09-12T06:04:25;5.55;;;2.70;;
64601;SDS011;68371;42.630;23.192;2023-09-12T06:06:51;5.72;;;2.60;;
64601;SDS011;68371;42.630;23.192;2023-09-12T06:09:18;11.07;;;2.78;;
64601;SDS011;68371;42.630;23.192;2023-09-12T06:11:45;11.48;;;2.58;;
64601;SDS011;68371;42.630;23.192;2023-09-12T06:14:12;4.60;;;2.47;;
64601;SDS011;68371;42.630;23.192;2023-09-12T06:16:39;4.95;;;2.50;;
64601;SDS011;68371;42.630;23.192;2023-09-12T06:19:05;5.38;;;2.45;;
64601;SDS011;68371;42.630;23.192;2023-09-12T06:21:34;5.00;;;2.08;;
64601;SDS011;68371;42.630;23.192;2023-09-12T06:24:10;6.45;;;2.35;;
64601;SDS011;68371;42.630;23.192;2023-09-12T06:26:38;5.50;;;2.10;;
64601;SDS011;68371;42.630;23.192;2023-09-12T06:29:05;7.57;;;2.40;;
64601;SDS011;68371;42.630;23.192;2023-09-12T06:31:32;7.10;;;2.50;;
64601;SDS011;68371;42.630;23.192;2023-09-12T06:34:00;6.40;;;2.22;;
64601;SDS011;68371;42.630;23.192;2023-09-12T06:36:27;9.27;;;2.35;;
64601;SDS011;68371;42.630;23.192;2023-09-12T06:38:56;7.63;;;2.15;;
64601;SDS011;68371;42.630;23.192;2023-09-12T06:41:23;4.75;;;2.20;;
64601;SDS011;68371;42.630;23.192;2023-09-12T06:43:50;4.85;;;2.33;;
64601;SDS011;68371;42.630;23.192;2023-09-12T06:46:17;7.82;;;2.17;;
64601;SDS011;68371;42.630;23.192;2023-09-12T06:48:43;12.07;;;2.13;;
64601;SDS011;68371;42.630;23.192;2023-09-12T06:51:10;5.85;;;2.35;;
64601;SDS011;68371;42.630;23.192;2023-09-12T06:53:38;3.92;;;2.40;;
64601;SDS011;68371;42.630;23.192;2023-09-12T06:56:06;3.92;;;2.10;;
64601;SDS011;68371;42.630;23.192;2023-09-12T06:58:33;5.47;;;2.20;;
64601;SDS011;68371;42.630;23.192;2023-09-12T07:01:03;6.65;;;2.40;;
64601;SDS011;68371;42.630;23.192;2023-09-12T07:03:31;5.68;;;2.13;;
64601;SDS011;68371;42.630;23.192;2023-09-12T07:05:58;5.53;;;2.20;;
64601;SDS011;68371;42.630;23.192;2023-09-12T07:08:25;6.43;;;2.03;;
64601;SDS011;68371;42.630;23.192;2023-09-12T07:10:52;7.32;;;2.17;;
64601;SDS011;68371;42.630;23.192;2023-09-12T07:13:21;6.85;;;2.65;;
64601;SDS011;68371;42.630;23.192;2023-09-12T07:15:49;5.40;;;2.00;;
64601;SDS011;68371;42.630;23.192;2023-09-12T07:18:16;7.38;;;2.40;;
64601;SDS011;68371;42.630;23.192;2023-09-12T07:20:43;8.07;;;2.47;;
64601;SDS011;68371;42.630;23.192;2023-09-12T07:23:10;6.72;;;2.63;;
64601;SDS011;68371;42.630;23.192;2023-09-12T07:25:37;4.97;;;2.40;;
64601;SDS011;68371;42.630;23.192;2023-09-12T07:28:05;5.72;;;2.20;;
64601;SDS011;68371;42.630;23.192;2023-09-12T07:30:33;5.90;;;2.35;;
64601;SDS011;68371;42.630;23.192;2023-09-12T07:33:00;10.07;;;2.28;;
64601;SDS011;68371;42.630;23.192;2023-09-12T07:35:28;6.28;;;2.15;;
64601;SDS011;68371;42.630;23.192;2023-09-12T07:37:55;5.53;;;2.38;;
64601;SDS011;68371;42.630;23.192;2023-09-12T07:40:22;6.40;;;2.45;;
64601;SDS011;68371;42.630;23.192;2023-09-12T07:42:49;5.55;;;2.67;;
64601;SDS011;68371;42.630;23.192;2023-09-12T07:45:16;5.28;;;2.50;;
64601;SDS011;68371;42.630;23.192;2023-09-12T07:47:44;5.82;;;2.40;;
64601;SDS011;68371;42.630;23.192;2023-09-12T07:50:11;5.57;;;2.50;;
64601;SDS011;68371;42.630;23.192;2023-09-12T07:52:37;7.10;;;2.50;;
64601;SDS011;68371;42.630;23.192;2023-09-12T07:55:05;8.40;;;2.80;;
64601;SDS011;68371;42.630;23.192;2023-09-12T07:57:33;5.45;;;2.72;;
64601;SDS011;68371;42.630;23.192;2023-09-12T08:00:01;5.25;;;2.45;;
64601;SDS011;68371;42.630;23.192;2023-09-12T08:02:30;8.15;;;2.47;;
64601;SDS011;68371;42.630;23.192;2023-09-12T08:04:58;14.23;;;3.97;;
64601;SDS011;68371;42.630;23.192;2023-09-12T08:07:24;6.25;;;2.70;;
64601;SDS011;68371;42.630;23.192;2023-09-12T08:09:52;12.13;;;3.03;;
64601;SDS011;68371;42.630;23.192;2023-09-12T08:12:19;10.68;;;3.00;;
64601;SDS011;68371;42.630;23.192;2023-09-12T08:14:47;5.55;;;3.35;;
64601;SDS011;68371;42.630;23.192;2023-09-12T08:17:14;6.13;;;2.88;;
64601;SDS011;68371;42.630;23.192;2023-09-12T08:19:41;10.30;;;2.95;;
64601;SDS011;68371;42.630;23.192;2023-09-12T08:22:10;4.57;;;2.95;;
64601;SDS011;68371;42.630;23.192;2023-09-12T08:24:37;8.80;;;2.72;;
64601;SDS011;68371;42.630;23.192;2023-09-12T08:27:05;8.02;;;3.05;;
64601;SDS011;68371;42.630;23.192;2023-09-12T08:29:32;12.32;;;3.08;;
64601;SDS011;68371;42.630;23.192;2023-09-12T08:32:00;6.13;;;2.72;;
64601;SDS011;68371;42.630;23.192;2023-09-12T08:34:27;4.60;;;2.70;;
64601;SDS011;68371;42.630;23.192;2023-09-12T08:36:54;7.60;;;2.85;;
64601;SDS011;68371;42.630;23.192;2023-09-12T08:39:24;5.72;;;2.80;;
64601;SDS011;68371;42.630;23.192;2023-09-12T08:41:53;8.32;;;2.83;;
64601;SDS011;68371;42.630;23.192;2023-09-12T08:44:20;10.32;;;3.63;;
64601;SDS011;68371;42.630;23.192;2023-09-12T08:46:48;8.18;;;2.40;;
64601;SDS011;68371;42.630;23.192;2023-09-12T08:49:14;6.38;;;2.60;;
64601;SDS011;68371;42.630;23.192;2023-09-12T08:51:42;8.80;;;2.72;;
64601;SDS011;68371;42.630;23.192;2023-09-12T08:54:09;7.38;;;2.35;;
64601;SDS011;68371;42.630;23.192;2023-09-12T08:56:39;10.35;;;2.95;;
64601;SDS011;68371;42.630;23.192;2023-09-12T08:59:07;9.50;;;2.88;;
64601;SDS011;68371;42.630;23.192;2023-09-12T09:01:35;8.85;;;2.80;;
64601;SDS011;68371;42.630;23.192;2023-09-12T09:04:03;8.57;;;2.60;;
64601;SDS011;68371;42.630;23.192;2023-09-12T09:06:31;11.40;;;2.55;;
64601;SDS011;68371;42.630;23.192;2023-09-12T09:09:02;14.77;;;3.03;;
64601;SDS011;68371;42.630;23.192;2023-09-12T09:11:31;8.73;;;2.40;;
64601;SDS011;68371;42.630;23.192;2023-09-12T09:14:00;10.38;;;2.70;;
64601;SDS011;68371;42.630;23.192;2023-09-12T09:16:28;10.85;;;2.67;;
64601;SDS011;68371;42.630;23.192;2023-09-12T09:18:55;6.70;;;2.45;;
64601;SDS011;68371;42.630;23.192;2023-09-12T09:21:24;7.63;;;2.50;;
64601;SDS011;68371;42.630;23.192;2023-09-12T09:23:52;8.05;;;2.60;;
64601;SDS011;68371;42.630;23.192;2023-09-12T09:26:20;4.75;;;2.47;;
64601;SDS011;68371;42.630;23.192;2023-09-12T09:29:05;8.80;;;2.67;;
64601;SDS011;68371;42.630;23.192;2023-09-12T09:31:33;4.45;;;2.80;;
64601;SDS011;68371;42.630;23.192;2023-09-12T09:34:00;5.25;;;2.80;;
64601;SDS011;68371;42.630;23.192;2023-09-12T09:36:28;8.38;;;2.70;;
64601;SDS011;68371;42.630;23.192;2023-09-12T09:38:56;7.30;;;2.67;;
64601;SDS011;68371;42.630;23.192;2023-09-12T09:41:24;6.55;;;2.20;;
64601;SDS011;68371;42.630;23.192;2023-09-12T09:43:52;5.43;;;2.63;;
64601;SDS011;68371;42.630;23.192;2023-09-12T09:46:20;4.55;;;2.45;;
64601;SDS011;68371;42.630;23.192;2023-09-12T09:48:50;11.18;;;3.03;;
64601;SDS011;68371;42.630;23.192;2023-09-12T09:51:17;9.35;;;3.85;;
64601;SDS011;68371;42.630;23.192;2023-09-12T09:53:45;8.05;;;2.83;;
64601;SDS011;68371;42.630;23.192;2023-09-12T09:56:13;11.13;;;2.67;;
64601;SDS011;68371;42.630;23.192;2023-09-12T09:58:46;7.43;;;2.80;;
64601;SDS011;68371;42.630;23.192;2023-09-12T10:01:14;6.55;;;2.42;;
64601;SDS011;68371;42.630;23.192;2023-09-12T10:03:47;8.50;;;2.70;;
64601;SDS011;68371;42.630;23.192;2023-09-12T10:06:14;6.57;;;2.92;;
64601;SDS011;68371;42.630;23.192;2023-09-12T10:08:42;10.70;;;2.85;;
64601;SDS011;68371;42.630;23.192;2023-09-12T10:11:09;7.90;;;2.72;;
64601;SDS011;68371;42.630;23.192;2023-09-12T10:13:36;7.60;;;2.50;;
64601;SDS011;68371;42.630;23.192;2023-09-12T10:16:08;5.43;;;2.63;;
64601;SDS011;68371;42.630;23.192;2023-09-12T10:18:38;7.72;;;2.42;;
64601;SDS011;68371;42.630;23.192;2023-09-12T10:21:10;6.97;;;2.70;;
64601;SDS011;68371;42.630;23.192;2023-09-12T10:23:43;6.97;;;2.45;;
64601;SDS011;68371;42.630;23.192;2023-09-12T10:26:11;7.10;;;2.38;;
64601;SDS011;68371;42.630;23.192;2023-09-12T10:28:40;9.95;;;2.70;;
64601;SDS011;68371;42.630;23.192;2023-09-12T10:31:08;8.05;;;2.50;;
64601;SDS011;68371;42.630;23.192;2023-09-12T10:33:37;11.55;;;2.70;;
64601;SDS011;68371;42.630;23.192;2023-09-12T10:36:04;10.65;;;2.83;;
64601;SDS011;68371;42.630;23.192;2023-09-12T10:38:36;9.68;;;2.97;;
64601;SDS011;68371;42.630;23.192;2023-09-12T10:41:08;7.38;;;2.97;;
64601;SDS011;68371;42.630;23.192;2023-09-12T10:43:39;7.55;;;2.80;;
64601;SDS011;68371;42.630;23.192;2023-09-12T10:46:06;5.78;;;2.80;;
64601;SDS011;68371;42.630;23.192;2023-09-12T10:48:34;8.70;;;2.38;;
64601;SDS011;68371;42.630;23.192;2023-09-12T10:51:01;11.10;;;2.72;;
64601;SDS011;68371;42.630;23.192;2023-09-12T10:53:30;9.55;;;2.95;;
64601;SDS011;68371;42.630;23.192;2023-09-12T10:56:00;13.07;;;2.80;;
64601;SDS011;68371;42.630;23.192;2023-09-12T11:01:38;6.07;;;2.63;;
64601;SDS011;68371;42.630;23.192;2023-09-12T11:06:59;6.53;;;2.63;;
64601;SDS011;68371;42.630;23.192;2023-09-12T11:09:28;8.80;;;2.67;;
64601;SDS011;68371;42.630;23.192;2023-09-12T11:11:57;4.68;;;2.60;;
64601;SDS011;68371;42.630;23.192;2023-09-12T11:14:28;6.78;;;2.65;;
64601;SDS011;68371;42.630;23.192;2023-09-12T11:19:50;8.55;;;2.50;;
64601;SDS011;68371;42.630;23.192;2023-09-12T11:22:22;5.90;;;3.00;;
64601;SDS011;68371;42.630;23.192;2023-09-12T11:24:50;10.25;;;2.90;;
64601;SDS011;68371;42.630;23.192;2023-09-12T11:27:18;7.53;;;2.90;;
64601;SDS011;68371;42.630;23.192;2023-09-12T11:29:45;5.50;;;2.45;;
64601;SDS011;68371;42.630;23.192;2023-09-12T11:32:25;7.15;;;2.50;;
64601;SDS011;68371;42.630;23.192;2023-09-12T11:34:53;9.65;;;2.95;;
64601;SDS011;68371;42.630;23.192;2023-09-12T11:37:23;7.32;;;2.88;;
64601;SDS011;68371;42.630;23.192;2023-09-12T11:39:51;9.40;;;2.80;;
64601;SDS011;68371;42.630;23.192;2023-09-12T11:42:19;6.55;;;2.80;;
64601;SDS011;68371;42.630;23.192;2023-09-12T11:44:48;10.18;;;3.10;;
64601;SDS011;68371;42.630;23.192;2023-09-12T11:47:16;6.45;;;2.70;;
64601;SDS011;68371;42.630;23.192;2023-09-12T11:49:43;8.75;;;2.63;;
64601;SDS011;68371;42.630;23.192;2023-09-12T11:52:10;7.20;;;2.80;;
64601;SDS011;68371;42.630;23.192;2023-09-12T11:54:38;9.65;;;2.80;;
64601;SDS011;68371;42.630;23.192;2023-09-12T11:57:07;10.43;;;2.97;;
64601;SDS011;68371;42.630;23.192;2023-09-12T11:59:38;10.30;;;3.67;;
64601;SDS011;68371;42.630;23.192;2023-09-12T12:02:06;6.88;;;3.15;;
64601;SDS011;68371;42.630;23.192;2023-09-12T12:04:34;6.88;;;3.13;;
64601;SDS011;68371;42.630;23.192;2023-09-12T12:07:01;9.75;;;2.90;;
64601;SDS011;68371;42.630;23.192;2023-09-12T12:09:29;9.38;;;2.80;;
64601;SDS011;68371;42.630;23.192;2023-09-12T12:11:56;4.57;;;2.53;;
64601;SDS011;68371;42.630;23.192;2023-09-12T12:14:30;8.32;;;2.78;;
64601;SDS011;68371;42.630;23.192;2023-09-12T12:17:06;9.18;;;2.90;;
64601;SDS011;68371;42.630;23.192;2023-09-12T12:19:35;9.40;;;3.35;;
64601;SDS011;68371;42.630;23.192;2023-09-12T12:22:02;8.48;;;3.10;;
64601;SDS011;68371;42.630;23.192;2023-09-12T12:24:40;5.47;;;2.85;;
64601;SDS011;68371;42.630;23.192;2023-09-12T12:27:08;7.90;;;2.92;;
64601;SDS011;68371;42.630;23.192;2023-09-12T12:29:36;7.30;;;3.20;;
64601;SDS011;68371;42.630;23.192;2023-09-12T12:32:07;6.47;;;2.72;;
64601;SDS011;68371;42.630;23.192;2023-09-12T12:34:34;10.77;;;3.22;;
64601;SDS011;68371;42.630;23.192;2023-09-12T12:37:02;5.63;;;2.58;;
64601;SDS011;68371;42.630;23.192;2023-09-12T12:39:31;8.75;;;2.53;;
64601;SDS011;68371;42.630;23.192;2023-09-12T12:41:57;12.18;;;2.60;;
64601;SDS011;68371;42.630;23.192;2023-09-12T12:44:32;7.35;;;2.60;;
64601;SDS011;68371;42.630;23.192;2023-09-12T12:47:03;5.50;;;2.78;;
64601;SDS011;68371;42.630;23.192;2023-09-12T12:49:37;5.63;;;2.88;;
64601;SDS011;68371;42.630;23.192;2023-09-12T12:52:04;9.98;;;2.80;;
64601;SDS011;68371;42.630;23.192;2023-09-12T12:54:32;8.98;;;2.75;;
64601;SDS011;68371;42.630;23.192;2023-09-12T12:56:59;8.73;;;2.88;;
64601;SDS011;68371;42.630;23.192;2023-09-12T12:59:26;7.72;;;2.50;;
64601;SDS011;68371;42.630;23.192;2023-09-12T13:01:54;7.15;;;2.80;;
64601;SDS011;68371;42.630;23.192;2023-09-12T13:04:23;8.20;;;2.70;;
64601;SDS011;68371;42.630;23.192;2023-09-12T13:06:51;7.78;;;2.35;;
64601;SDS011;68371;42.630;23.192;2023-09-12T13:09:18;6.60;;;2.58;;
64601;SDS011;68371;42.630;23.192;2023-09-12T13:11:45;6.68;;;2.65;;
64601;SDS011;68371;42.630;23.192;2023-09-12T13:14:12;4.88;;;2.60;;
64601;SDS011;68371;42.630;23.192;2023-09-12T13:16:39;8.65;;;2.70;;
64601;SDS011;68371;42.630;23.192;2023-09-12T13:19:06;16.20;;;3.70;;
64601;SDS011;68371;42.630;23.192;2023-09-12T13:21:33;10.68;;;3.10;;
64601;SDS011;68371;42.630;23.192;2023-09-12T13:24:03;13.98;;;2.20;;
64601;SDS011;68371;42.630;23.192;2023-09-12T13:26:30;11.73;;;2.60;;
64601;SDS011;68371;42.630;23.192;2023-09-12T13:28:57;8.45;;;2.40;;
64601;SDS011;68371;42.630;23.192;2023-09-12T13:31:23;6.60;;;2.30;;
64601;SDS011;68371;42.630;23.192;2023-09-12T13:33:50;4.95;;;2.50;;
64601;SDS011;68371;42.630;23.192;2023-09-12T13:36:17;9.38;;;2.67;;
64601;SDS011;68371;42.630;23.192;2023-09-12T13:38:43;5.38;;;2.50;;
64601;SDS011;68371;42.630;23.192;2023-09-12T13:41:14;12.32;;;4.05;;
64601;SDS011;68371;42.630;23.192;2023-09-12T13:43:40;8.38;;;2.70;;
64601;SDS011;68371;42.630;23.192;2023-09-12T13:46:10;4.60;;;2.60;;
64601;SDS011;68371;42.630;23.192;2023-09-12T13:48:37;4.97;;;2.45;;
64601;SDS011;68371;42.630;23.192;2023-09-12T13:51:03;10.50;;;2.55;;
64601;SDS011;68371;42.630;23.192;2023-09-12T13:53:30;7.25;;;2.55;;
64601;SDS011;68371;42.630;23.192;2023-09-12T13:55:57;8.65;;;2.70;;
64601;SDS011;68371;42.630;23.192;2023-09-12T13:58:27;7.70;;;2.47;;
64601;SDS011;68371;42.630;23.192;2023-09-12T14:00:54;9.40;;;2.30;;
64601;SDS011;68371;42.630;23.192;2023-09-12T14:03:20;5.50;;;2.50;;
64601;SDS011;68371;42.630;23.192;2023-09-12T14:05:47;4.40;;;2.53;;
64601;SDS011;68371;42.630;23.192;2023-09-12T14:08:14;6.13;;;2.47;;
64601;SDS011;68371;42.630;23.192;2023-09-12T14:10:41;10.77;;;2.72;;
64601;SDS011;68371;42.630;23.192;2023-09-12T14:13:09;5.97;;;2.50;;
64601;SDS011;68371;42.630;23.192;2023-09-12T14:15:38;10.13;;;2.88;;
64601;SDS011;68371;42.630;23.192;2023-09-12T14:18:04;9.57;;;2.58;;
64601;SDS011;68371;42.630;23.192;2023-09-12T14:20:31;7.15;;;2.40;;
64601;SDS011;68371;42.630;23.192;2023-09-12T14:22:58;6.45;;;2.67;;
64601;SDS011;68371;42.630;23.192;2023-09-12T14:25:24;9.45;;;2.38;;
64601;SDS011;68371;42.630;23.192;2023-09-12T14:27:51;7.22;;;2.58;;
64601;SDS011;68371;42.630;23.192;2023-09-12T14:30:18;5.80;;;2.70;;
64601;SDS011;68371;42.630;23.192;2023-09-12T14:32:47;12.93;;;3.30;;
64601;SDS011;68371;42.630;23.192;2023-09-12T14:35:14;10.65;;;2.92;;
64601;SDS011;68371;42.630;23.192;2023-09-12T14:37:40;7.28;;;2.45;;
64601;SDS011;68371;42.630;23.192;2023-09-12T14:40:08;8.32;;;2.67;;
64601;SDS011;68371;42.630;23.192;2023-09-12T14:42:36;5.72;;;2.65;;
64601;SDS011;68371;42.630;23.192;2023-09-12T14:45:03;6.65;;;2.72;;
64601;SDS011;68371;42.630;23.192;2023-09-12T14:47:31;13.48;;;2.75;;
64601;SDS011;68371;42.630;23.192;2023-09-12T14:49:59;7.72;;;2.60;;
64601;SDS011;68371;42.630;23.192;2023-09-12T14:52:26;13.57;;;2.92;;